Indianapolis, IN (46277)

5:28 AM EST on February 25, 2017 (GMT -0500)
Mile Square | | Change Station

Elev 715 ft 39.77 °N, 86.15 °W | Updated 5 minutes ago

Overcast
Overcast
37.8 °F
Feels Like 33 °F
N
5.6
Wind Variable Wind from West
Gusts 13.7 mph

Today
High -- | Low -- °F
--% Chance of Precip.
Yesterday
High -- | Low -- °F
Precip. -- in
Pressure 29.70 in
Visibility 10.0 miles
Clouds Overcast 4600 ft
Windchill 33 °F
Dew Point 27 °F
Humidity 66%
Rainfall 1.08 in
Snow Depth Not available.
7:23 AM 6:32 PM
Waning Crescent, 2% visible
METAR KIND 250954Z 26021G26KT 10SM OVC046 02/M03 A2970 RMK AO2 PK WND 25029/0925 SLP057 T00171033
Pressure 29.70 in
Visibility 10.0 miles
Clouds Overcast 4600 ft
Windchill 33 °F
Dew Point 27 °F
Humidity 66%
Rainfall 1.08 in
Snow Depth Not available.
7:23 AM 6:32 PM
Waning Crescent, 2% visible
METAR KIND 250954Z 26021G26KT 10SM OVC046 02/M03 A2970 RMK AO2 PK WND 25029/0925 SLP057 T00171033

Get Your Daily Forecast Email!

Thanks for signing up!

Be on the lookout for a verification email in your inbox.

You'll start receiving the daily forecast at 8 AM.

×

10-Day Weather Forecast

Almanac

Astronomy

Feb. 25, 2017 Rise Set
Actual Time
Civil Twilight
Nautical Twilight
Astronomical Twilight
Moon
Length of Visible Light
Length of Day
Tomorrow will be .
, % of the Moon is Illuminated

Today's Extremes

State Highs State Lows

Community

WunderPhotos

Upload Photos

1,962,540 photos uploaded!

WunderBlog® & News

Nearby

Air Quality

  Air Quality AQ Index Pollutant
Not available.

Snow Depth

Station Depth Elevation

Earthquake Activity

City Distance Mag. Time & Date
Minimum magnitude displayed is 2.5.

Coastal Water Temperatures

Place Temperature

Stations

Nearby Weather Stations

Station Location Temp. Windchill Dew Point Humidity Wind Precip. Elev Updated Type
                   

Watches & Warnings

There are currently no watches in effect.